Time;durP1;ratioP1;P1;durP2;ratioP2;P2;SDS_P1;SDS_P2;PMS_P1;PMS_P2;Temp;Humidity;BMP_temperature;BMP_pressure;BME280_temperature;BME280_humidity;BME280_pressure;Samples;Min_cycle;Max_cycle;Signal;HPM_P1;HPM_P2
2023/03/21 00:01:30;;;;;;;;;;;;;;;;;;5052550;28;20440;-61
2023/03/21 00:03:57;;;;;;;;;;;;;;;;;;5052804;28;19927;-61
2023/03/21 00:06:24;;;;;;;;;;;;;;;;;;5053002;28;20314;-61
2023/03/21 00:08:51;;;;;;;;;;;;;;;;;;5050495;28;19928;-61
2023/03/21 00:11:18;;;;;;;;;;;;;;;;;;5052065;28;19924;-61
2023/03/21 00:13:45;;;;;;;;;;;;;;;;;;5052616;28;19925;-61
2023/03/21 00:16:14;;;;;;;;;;;;;;;;;;5052368;28;19921;-61
2023/03/21 00:18:41;;;;;;;;;;;;;;;;;;5048155;28;20286;-62
2023/03/21 00:21:08;;;;;;;;;;;;;;;;;;5052815;28;19929;-62
2023/03/21 00:23:35;;;;;;;;;;;;;;;;;;5050606;28;20285;-62
2023/03/21 00:26:02;;;;;;;;;;;;;;;;;;5051326;28;19921;-62
2023/03/21 00:28:29;;;;;;;;;;;;;;;;;;5052302;28;19921;-62
2023/03/21 00:30:56;;;;;;;;;;;;;;;;;;5049415;28;19920;-61
2023/03/21 00:33:23;;;;;;;;;;;;;;;;;;5051874;28;20409;-62
2023/03/21 00:35:50;;;;;;;;;;;;;;;;;;5051603;28;19927;-62
2023/03/21 00:38:18;;;;;;;;;;;;;;;;;;5048299;28;19920;-62
2023/03/21 00:40:44;;;;;;;;;;;;;;;;;;5048065;28;19974;-61
2023/03/21 00:43:13;;;;;;;;;;;;;;;;;;5048587;28;20309;-62
2023/03/21 00:45:40;;;;;;;;;;;;;;;;;;5049256;28;19925;-62
2023/03/21 00:48:07;;;;;;;;;;;;;;;;;;5047125;28;19925;-62
2023/03/21 00:50:35;;;;;;;;;;;;;;;;;;5032364;28;19928;-62
2023/03/21 00:53:02;;;;;;;;;;;;;;;;;;5032089;28;19921;-62
2023/03/21 00:55:29;;;;;;;;;;;;;;;;;;5040073;28;19928;-62
2023/03/21 00:57:55;;;;;;;;;;;;;;;;;;5051936;28;19927;-61
2023/03/21 01:00:22;;;;;;;;;;;;;;;;;;5048534;28;19920;-61
2023/03/21 01:02:56;;;;;;;;;;;;;;;;;;5051991;28;19920;-62
2023/03/21 01:08:06;;;;;;;1999.90;999.90;;;;;;;;;;5047119;28;20425;-62
2023/03/21 01:10:33;;;;;;;;;;;;;;;;;;5051158;28;20438;-61
2023/03/21 01:13:00;;;;;;;;;;;;;;;;;;5043666;28;19920;-62
2023/03/21 01:15:27;;;;;;;1999.90;999.90;;;;;;;;;;5047507;28;20940;-62
2023/03/21 01:17:54;;;;;;;;;;;;;;;;;;5046891;28;20058;-62
2023/03/21 01:20:21;;;;;;;;;;;;;;;;;;5051637;28;19921;-62
2023/03/21 01:22:48;;;;;;;;;;;;;;;;;;5050729;28;20299;-62
2023/03/21 01:25:15;;;;;;;;;;;;;;;;;;5051606;28;19927;-62
2023/03/21 01:27:43;;;;;;;1999.90;999.90;;;;;;;;;;5051064;28;25065;-62
2023/03/21 01:30:10;;;;;;;;;;;;;;;;;;5048797;28;20359;-62
2023/03/21 01:32:37;;;;;;;;;;;;;;;;;;5051604;28;20436;-62
2023/03/21 01:35:04;;;;;;;;;;;;;;;;;;5051366;28;19964;-62
2023/03/21 01:37:31;;;;;;;;;;;;;;;;;;5047492;28;20294;-62
2023/03/21 01:39:58;;;;;;;;;;;;;;;;;;5048079;28;20140;-62
2023/03/21 01:42:25;;;;;;;;;;;;;;;;;;5051685;28;19925;-62
2023/03/21 01:44:52;;;;;;;;;;;;;;;;;;5041498;28;20287;-62
2023/03/21 01:47:18;;;;;;;;;;;;;;;;;;5055664;28;19928;-62
2023/03/21 01:49:46;;;;;;;;;;;;;;;;;;5054714;28;20310;-62
2023/03/21 01:52:14;;;;;;;;;;;;;;;;;;5052674;28;19931;-62
2023/03/21 01:54:41;;;;;;;;;;;;;;;;;;5055349;28;19925;-62
2023/03/21 01:57:08;;;;;;;;;;;;;;;;;;5048751;28;19933;-62
2023/03/21 01:59:35;;;;;;;;;;;;;;;;;;5052100;28;20306;-62
2023/03/21 02:02:05;;;;;;;;;;;;;;;;;;5051570;28;19924;-62
2023/03/21 02:04:32;;;;;;;;;;;;;;;;;;5050237;28;20306;-62
2023/03/21 02:06:59;;;;;;;;;;;;;;;;;;5055435;28;19940;-62
2023/03/21 02:09:26;;;;;;;;;;;;;;;;;;5050871;28;19925;-62
2023/03/21 02:11:53;;;;;;;;;;;;;;;;;;5054609;28;19964;-62
2023/03/21 02:14:20;;;;;;;;;;;;;;;;;;5054729;28;19925;-62
2023/03/21 02:16:47;;;;;;;;;;;;;;;;;;5049120;28;19945;-62
2023/03/21 02:19:14;;;;;;;;;;;;;;;;;;5054840;28;19924;-62
2023/03/21 02:21:41;;;;;;;;;;;;;;;;;;5054878;28;19932;-62
2023/03/21 02:24:08;;;;;;;;;;;;;;;;;;5050367;28;19935;-62
2023/03/21 02:26:35;;;;;;;;;;;;;;;;;;5054915;28;19925;-62
2023/03/21 02:29:02;;;;;;;;;;;;;;;;;;5054532;28;20023;-62
2023/03/21 02:31:31;;;;;;;;;;;;;;;;;;5051273;28;20417;-62
2023/03/21 02:33:57;;;;;;;;;;;;;;;;;;5054489;28;20027;-62
2023/03/21 02:36:25;;;;;;;;;;;;;;;;;;5054453;28;19929;-61
2023/03/21 02:38:52;;;;;;;;;;;;;;;;;;5053395;28;20337;-62
2023/03/21 02:41:19;;;;;;;;;;;;;;;;;;5050035;28;19925;-62
2023/03/21 02:43:46;;;;;;;;;;;;;;;;;;5054634;28;20297;-62
2023/03/21 02:46:13;;;;;;;;;;;;;;;;;;5054349;28;19925;-62
2023/03/21 02:48:40;;;;;;;;;;;;;;;;;;5054098;28;20390;-62
2023/03/21 02:51:07;;;;;;;;;;;;;;;;;;5050582;28;19925;-62
2023/03/21 02:53:34;;;;;;;;;;;;;;;;;;5053989;28;20386;-62
2023/03/21 02:56:01;;;;;;;;;;;;;;;;;;5044089;28;19925;-62
2023/03/21 02:58:28;;;;;;;;;;;;;;;;;;5054067;28;19995;-62
2023/03/21 03:00:55;;;;;;;;;;;;;;;;;;5050996;28;20389;-62
2023/03/21 03:03:22;;;;;;;;;;;;;;;;;;5049594;28;20371;-62
2023/03/21 03:05:48;;;;;;;;;;;;;;;;;;5053328;28;19929;-62
2023/03/21 03:08:15;;;;;;;;;;;;;;;;;;5050818;28;19929;-62
2023/03/21 03:10:42;;;;;;;;;;;;;;;;;;5053023;28;20303;-62
2023/03/21 03:15:40;;;;;;;;;;;;;;;;;;5050219;28;19925;-57
2023/03/21 03:18:07;;;;;;;;;;;;;;;;;;5053981;28;19932;-59
2023/03/21 03:20:34;;;;;;;;;;;;;;;;;;5047266;28;20394;-58
2023/03/21 03:23:01;;;;;;;;;;;;;;;;;;5053279;28;19987;-60
2023/03/21 03:25:28;;;;;;;;;;;;;;;;;;5053587;28;19925;-56
2023/03/21 03:27:55;;;;;;;;;;;;;;;;;;5053345;28;19925;-58
2023/03/21 03:30:22;;;;;;;;;;;;;;;;;;5053476;28;19924;-59
2023/03/21 03:32:49;;;;;;;;;;;;;;;;;;5053511;28;19925;-58
2023/03/21 03:35:16;;;;;;;;;;;;;;;;;;5049655;28;20305;-59
2023/03/21 03:37:43;;;;;;;;;;;;;;;;;;5043862;28;19929;-58
2023/03/21 03:40:10;;;;;;;;;;;;;;;;;;5013729;28;20414;-58
2023/03/21 03:42:37;;;;;;;;;;;;;;;;;;5033742;28;19931;-58
2023/03/21 03:45:04;;;;;;;;;;;;;;;;;;5053264;28;19925;-58
2023/03/21 03:47:31;;;;;;;;;;;;;;;;;;5049696;28;19968;-58
2023/03/21 03:49:58;;;;;;;;;;;;;;;;;;5053269;28;19925;-58
2023/03/21 03:52:25;;;;;;;;;;;;;;;;;;5052633;28;19924;-58
2023/03/21 03:54:52;;;;;;;;;;;;;;;;;;5049052;28;19924;-58
2023/03/21 03:57:19;;;;;;;;;;;;;;;;;;5031954;28;19925;-57
2023/03/21 03:59:46;;;;;;;;;;;;;;;;;;5033290;28;19925;-59
2023/03/21 04:02:12;;;;;;;;;;;;;;;;;;5038395;28;19928;-58
2023/03/21 04:04:40;;;;;;;;;;;;;;;;;;5048139;28;19925;-58
2023/03/21 04:07:07;;;;;;;;;;;;;;;;;;5052964;28;20374;-58
2023/03/21 04:09:34;;;;;;;;;;;;;;;;;;5048734;28;19931;-57
2023/03/21 04:12:01;;;;;;;;;;;;;;;;;;5052749;28;20015;-58
2023/03/21 04:14:28;;;;;;;;;;;;;;;;;;5047119;28;20302;-59
2023/03/21 04:16:55;;;;;;;;;;;;;;;;;;5051218;28;19924;-59
2023/03/21 04:19:22;;;;;;;;;;;;;;;;;;5052861;28;20011;-56
2023/03/21 04:21:49;;;;;;;;;;;;;;;;;;5048950;28;19925;-57
2023/03/21 04:24:16;;;;;;;;;;;;;;;;;;5049426;28;19935;-59
2023/03/21 04:26:43;;;;;;;;;;;;;;;;;;5046782;28;20035;-58
2023/03/21 04:29:10;;;;;;;;;;;;;;;;;;5052037;28;19932;-58
2023/03/21 04:31:40;;;;;;;;;;;;;;;;;;5051883;28;20294;-58
2023/03/21 04:34:11;;;;;;;;;;;;;;;;;;5051997;28;19947;-57
2023/03/21 04:36:41;;;;;;;;;;;;;;;;;;5052100;28;19924;-57
2023/03/21 04:39:11;;;;;;;;;;;;;;;;;;5052622;28;20378;-59
2023/03/21 04:41:38;;;;;;;;;;;;;;;;;;5046273;28;19931;-58
2023/03/21 04:44:05;;;;;;;;;;;;;;;;;;5052096;28;19925;-59
2023/03/21 04:46:32;;;;;;;;;;;;;;;;;;5052354;28;19952;-58
2023/03/21 04:48:59;;;;;;;;;;;;;;;;;;5051810;28;19931;-59
2023/03/21 04:51:26;;;;;;;;;;;;;;;;;;5052216;28;19935;-57
2023/03/21 04:53:56;;;;;;;;;;;;;;;;;;5052419;28;19951;-57
2023/03/21 04:56:24;;;;;;;;;;;;;;;;;;5052210;28;19932;-57
2023/03/21 04:58:51;;;;;;;;;;;;;;;;;;5047867;28;19925;-59
2023/03/21 05:01:19;;;;;;;;;;;;;;;;;;5051939;28;19925;-59
2023/03/21 05:03:46;;;;;;;;;;;;;;;;;;5048848;28;20317;-58
2023/03/21 05:06:13;;;;;;;;;;;;;;;;;;5051991;28;19932;-56
2023/03/21 05:08:40;;;;;;;;;;;;;;;;;;5051931;28;19925;-57
2023/03/21 05:11:07;;;;;;;;;;;;;;;;;;5051609;28;19979;-58
2023/03/21 05:13:34;;;;;;;;;;;;;;;;;;5048079;28;19949;-59
2023/03/21 05:16:01;;;;;;;;;;;;;;;;;;5043298;28;19925;-58
2023/03/21 05:18:29;;;;;;;;;;;;;;;;;;5031984;28;20420;-58
2023/03/21 05:20:56;;;;;;;;;;;;;;;;;;5034302;28;19921;-58
2023/03/21 05:23:23;;;;;;;;;;;;;;;;;;5048418;28;19966;-58
2023/03/21 05:25:50;;;;;;;;;;;;;;;;;;5052963;28;19921;-58
2023/03/21 05:28:17;;;;;;;;;;;;;;;;;;5056025;28;19920;-58
2023/03/21 05:30:44;;;;;;;;;;;;;;;;;;5051169;28;19982;-58
2023/03/21 05:33:11;;;;;;;;;;;;;;;;;;5035514;28;19956;-58
2023/03/21 05:35:38;;;;;;;;;;;;;;;;;;5035951;28;19921;-58
2023/03/21 05:38:05;;;;;;;;;;;;;;;;;;5035251;28;20386;-58
2023/03/21 05:40:32;;;;;;;;;;;;;;;;;;5044329;28;19921;-58
2023/03/21 05:42:59;;;;;;;;;;;;;;;;;;5024369;28;19928;-57
2023/03/21 05:45:26;;;;;;;;;;;;;;;;;;5039714;28;19920;-58
2023/03/21 05:47:53;;;;;;;;;;;;;;;;;;5055763;28;20337;-58
2023/03/21 05:50:20;;;;;;;;;;;;;;;;;;5055500;28;19928;-57
2023/03/21 05:52:46;;;;;;;;;;;;;;;;;;5054703;28;19921;-58
2023/03/21 05:55:13;;;;;;;;;;;;;;;;;;5055454;28;19928;-57
2023/03/21 05:57:40;;;;;;;;;;;;;;;;;;5055353;28;19922;-58
2023/03/21 06:00:08;;;;;;;;;;;;;;;;;;5055564;28;19920;-58
2023/03/21 06:02:34;;;;;;;;;;;;;;;;;;5051714;28;19955;-58
2023/03/21 06:05:01;;;;;;;;;;;;;;;;;;5055322;28;19921;-58
2023/03/21 06:07:28;;;;;;;;;;;;;;;;;;5047565;28;20295;-58
2023/03/21 06:09:55;;;;;;;;;;;;;;;;;;5055219;28;19921;-58
2023/03/21 06:12:22;;;;;;;;;;;;;;;;;;5054600;28;20283;-59
2023/03/21 06:14:49;;;;;;;;;;;;;;;;;;5054909;28;19920;-57
2023/03/21 06:17:16;;;;;;;;;;;;;;;;;;5048392;28;19925;-58
2023/03/21 06:19:43;;;;;;;;;;;;;;;;;;5054477;28;19930;-59
2023/03/21 06:22:10;;;;;;;;;;;;;;;;;;5054499;28;19920;-59
2023/03/21 06:24:37;;;;;;;;;;;;;;;;;;5039134;28;19921;-58
2023/03/21 06:27:04;;;;;;;;;;;;;;;;;;5032480;28;20162;-58
2023/03/21 06:29:31;;;;;;;;;;;;;;;;;;5039359;28;19921;-56
2023/03/21 06:31:57;;;;;;;;;;;;;;;;;;5050853;28;19920;-58
2023/03/21 06:34:25;;;;;;;;;;;;;;;;;;5033225;28;20268;-56
2023/03/21 06:36:53;;;;;;;;;;;;;;;;;;5034520;28;25121;-58
2023/03/21 06:39:20;;;;;;;;;;;;;;;;;;5034243;28;19928;-58
2023/03/21 06:41:47;;;;;;;;;;;;;;;;;;5049444;28;20267;-57
2023/03/21 06:44:14;;;;;;;;;;;;;;;;;;5039076;28;19932;-59
2023/03/21 06:46:41;;;;;;;;;;;;;;;;;;5039589;28;20392;-57
2023/03/21 06:49:07;;;;;;;;;;;;;;;;;;5049671;28;19937;-58
2023/03/21 06:51:34;;;;;;;;;;;;;;;;;;5040378;28;19925;-58
2023/03/21 06:54:01;;;;;;;;;;;;;;;;;;5029360;28;19921;-58
2023/03/21 06:56:28;;;;;;;;;;;;;;;;;;5024063;28;19921;-58
2023/03/21 06:58:55;;;;;;;;;;;;;;;;;;5031262;28;20559;-60
2023/03/21 07:01:23;;;;;;;;;;;;;;;;;;5030156;28;19921;-59
2023/03/21 07:03:52;;;;;;;;;;;;;;;;;;5036359;28;20378;-58
2023/03/21 07:06:19;;;;;;;;;;;;;;;;;;5028825;28;19972;-57
2023/03/21 07:08:46;;;;;;;;;;;;;;;;;;5038859;28;20203;-57
2023/03/21 07:11:13;;;;;;;;;;;;;;;;;;5044446;28;20007;-56
2023/03/21 07:13:40;;;;;;;;;;;;;;;;;;5029527;28;19920;-55
2023/03/21 07:16:07;;;;;;;;;;;;;;;;;;5033999;28;19928;-57
2023/03/21 07:18:34;;;;;;;;;;;;;;;;;;5021711;28;19932;-57
2023/03/21 07:21:01;;;;;;;;;;;;;;;;;;5032006;28;20020;-57
2023/03/21 07:23:28;;;;;;;;;;;;;;;;;;5027903;28;19943;-57
2023/03/21 07:25:55;;;;;;;;;;;;;;;;;;5032764;28;19937;-57
2023/03/21 07:28:22;;;;;;;;;;;;;;;;;;5030452;28;20625;-57
2023/03/21 07:30:49;;;;;;;;;;;;;;;;;;5028317;28;19925;-56
2023/03/21 07:33:16;;;;;;;;;;;;;;;;;;5031466;28;19968;-56
2023/03/21 07:35:43;;;;;;;;;;;;;;;;;;5031764;28;20341;-54
2023/03/21 07:38:10;;;;;;;;;;;;;;;;;;5036936;28;19924;-55
2023/03/21 07:40:36;;;;;;;;;;;;;;;;;;5032535;28;20397;-57
2023/03/21 07:43:03;;;;;;;;;;;;;;;;;;5023852;28;19926;-56
2023/03/21 07:45:30;;;;;;;;;;;;;;;;;;5027463;28;19932;-57
2023/03/21 07:47:57;;;;;;;;;;;;;;;;;;5028242;28;19932;-57
2023/03/21 07:50:24;;;;;;;;;;;;;;;;;;5027585;28;19944;-56
2023/03/21 07:52:51;;;;;;;;;;;;;;;;;;5029988;28;19925;-56
2023/03/21 07:55:18;;;;;;;;;;;;;;;;;;5030903;28;19929;-56
2023/03/21 07:57:45;;;;;;;;;;;;;;;;;;5031813;28;19936;-57
2023/03/21 08:00:12;;;;;;;;;;;;;;;;;;5031710;28;19983;-58
2023/03/21 08:02:39;;;;;;;;;;;;;;;;;;5036623;28;20359;-57
2023/03/21 08:05:06;;;;;;;;;;;;;;;;;;5026041;28;20011;-57
2023/03/21 08:07:33;;;;;;;;;;;;;;;;;;5031580;28;19933;-61
2023/03/21 08:10:00;;;;;;;;;;;;;;;;;;5033046;28;19924;-61
2023/03/21 08:12:27;;;;;;;;;;;;;;;;;;5027960;28;20201;-61
2023/03/21 08:14:54;;;;;;;;;;;;;;;;;;5024922;28;19936;-61
2023/03/21 08:17:21;;;;;;;;;;;;;;;;;;5036532;28;20287;-60
2023/03/21 08:19:48;;;;;;;;;;;;;;;;;;5029736;28;19926;-61
2023/03/21 08:22:15;;;;;;;;;;;;;;;;;;5031528;28;20307;-60
2023/03/21 08:24:42;;;;;;;;;;;;;;;;;;5025370;28;19925;-62
2023/03/21 08:27:09;;;;;;;;;;;;;;;;;;5031271;28;20299;-61
2023/03/21 08:29:39;;;;;;;;;;;;;;;;;;5023160;28;19925;-61
2023/03/21 08:32:06;;;;;;;;;;;;;;;;;;5030817;28;19925;-61
2023/03/21 08:34:33;;;;;;;;;;;;;;;;;;5030966;28;19925;-60
2023/03/21 08:36:59;;;;;;;;;;;;;;;;;;5031310;28;19925;-63
2023/03/21 08:39:27;;;;;;;;;;;;;;;;;;5031107;28;19925;-60
2023/03/21 08:41:54;;;;;;;;;;;;;;;;;;5030379;28;20365;-60
2023/03/21 08:44:21;;;;;;;;;;;;;;;;;;5041553;28;19925;-61
2023/03/21 08:46:47;;;;;;;;;;;;;;;;;;5019933;28;19925;-61
2023/03/21 08:49:15;;;;;;;;;;;;;;;;;;5028857;28;19933;-63
2023/03/21 08:51:44;;;;;;;;;;;;;;;;;;5028199;28;19937;-62
2023/03/21 08:54:11;;;;;;;;;;;;;;;;;;5030740;28;19931;-62
2023/03/21 08:56:38;;;;;;;;;;;;;;;;;;5038049;28;19948;-62
2023/03/21 08:59:05;;;;;;;;;;;;;;;;;;5038324;28;19936;-61
2023/03/21 09:01:32;;;;;;;;;;;;;;;;;;5027454;28;19926;-59
2023/03/21 09:03:59;;;;;;;;;;;;;;;;;;5029644;28;19968;-61
2023/03/21 09:06:26;;;;;;;;;;;;;;;;;;5031854;28;19925;-61
2023/03/21 09:08:53;;;;;;;;;;;;;;;;;;5029834;28;19925;-60
2023/03/21 09:11:20;;;;;;;;;;;;;;;;;;5029568;28;19929;-60
2023/03/21 09:13:47;;;;;;;;;;;;;;;;;;5053511;22;19932;-61
2023/03/21 09:16:14;;;;;;;;;;;;;;;;;;4987918;28;19926;-64
2023/03/21 09:18:48;;;;;;;;;;;;;;;;;;4992428;28;19964;-65
2023/03/21 09:21:15;;;;;;;;;;;;;;;;;;4988901;28;19926;-65
2023/03/21 09:23:43;;;;;;;;;;;;;;;;;;4992055;28;19925;-65
2023/03/21 09:26:11;;;;;;;;;;;;;;;;;;4988131;28;20364;-66
2023/03/21 09:28:38;;;;;;;;;;;;;;;;;;4985268;28;19933;-65
2023/03/21 09:31:05;;;;;;;;;;;;;;;;;;4986868;28;19926;-64
2023/03/21 09:33:34;;;;;;;;;;;;;;;;;;4984051;28;19926;-68
2023/03/21 09:36:00;;;;;;;;;;;;;;;;;;4990751;28;19953;-65
2023/03/21 09:38:29;;;;;;;;;;;;;;;;;;4992637;28;19929;-70
2023/03/21 09:40:56;;;;;;;;;;;;;;;;;;4992207;28;19979;-70
2023/03/21 09:43:23;;;;;;;;;;;;;;;;;;4992672;28;19935;-70
2023/03/21 09:45:50;;;;;;;;;;;;;;;;;;4985844;28;19965;-69
2023/03/21 09:48:18;;;;;;;;;;;;;;;;;;4992535;28;19930;-69
2023/03/21 09:50:45;;;;;;;;;;;;;;;;;;4991795;28;19925;-70
2023/03/21 09:53:12;;;;;;;;;;;;;;;;;;4990746;28;20380;-68
2023/03/21 09:55:39;;;;;;;;;;;;;;;;;;4992319;28;19926;-70
2023/03/21 09:58:06;;;;;;;;;;;;;;;;;;4992458;28;20391;-69
2023/03/21 10:00:34;;;;;;;;;;;;;;;;;;4987242;28;19926;-71
2023/03/21 10:03:01;;;;;;;;;;;;;;;;;;4982796;28;20008;-66
2023/03/21 10:05:29;;;;;;;;;;;;;;;;;;4987329;28;19965;-69
2023/03/21 10:07:55;;;;;;;;;;;;;;;;;;4989777;28;19925;-67
2023/03/21 10:10:23;;;;;;;;;;;;;;;;;;4995338;28;20397;-68
2023/03/21 10:12:50;;;;;;;;;;;;;;;;;;4995653;28;19926;-64
2023/03/21 10:15:16;;;;;;;;;;;;;;;;;;5006452;28;20422;-68
2023/03/21 10:17:43;;;;;;;;;;;;;;;;;;4993666;28;19926;-69
2023/03/21 10:20:10;;;;;;;;;;;;;;;;;;4993899;28;20145;-69
2023/03/21 10:22:37;;;;;;;;;;;;;;;;;;4994945;28;19926;-68
2023/03/21 10:25:04;;;;;;;;;;;;;;;;;;4995641;28;19925;-66
2023/03/21 10:27:31;;;;;;;;;;;;;;;;;;4995422;28;19959;-66
2023/03/21 10:29:59;;;;;;;;;;;;;;;;;;4995448;28;20012;-66
2023/03/21 10:32:26;;;;;;;;;;;;;;;;;;4988975;28;20012;-66
2023/03/21 10:34:54;;;;;;;;;;;;;;;;;;4995065;28;20336;-66
2023/03/21 10:37:21;;;;;;;;;;;;;;;;;;4988771;28;19926;-66
2023/03/21 10:39:48;;;;;;;;;;;;;;;;;;4992482;28;20303;-66
2023/03/21 10:42:15;;;;;;;;;;;;;;;;;;4994119;28;19929;-62
2023/03/21 10:44:41;;;;;;;;;;;;;;;;;;4986485;28;20002;-64
2023/03/21 10:47:08;;;;;;;;;;;;;;;;;;4991828;28;19933;-63
2023/03/21 10:49:35;;;;;;;;;;;;;;;;;;4985948;28;19926;-65
2023/03/21 10:52:02;;;;;;;;;;;;;;;;;;4989393;28;19925;-62
2023/03/21 10:54:29;;;;;;;;;;;;;;;;;;4990372;28;20292;-69
2023/03/21 10:56:56;;;;;;;;;;;;;;;;;;4991894;28;19926;-65
2023/03/21 10:59:23;;;;;;;;;;;;;;;;;;4993176;28;19988;-70
2023/03/21 11:01:51;;;;;;;;;;;;;;;;;;4990433;28;19930;-64
2023/03/21 11:04:17;;;;;;;;;;;;;;;;;;4994927;28;19930;-64
2023/03/21 11:06:45;;;;;;;;;;;;;;;;;;4992578;28;19926;-64
2023/03/21 11:09:12;;;;;;;;;;;;;;;;;;4992067;28;19932;-64
2023/03/21 11:11:39;;;;;;;;;;;;;;;;;;4984758;28;19926;-64
2023/03/21 11:14:06;;;;;;;;;;;;;;;;;;4991911;28;19926;-64
2023/03/21 11:16:33;;;;;;;;;;;;;;;;;;4988953;28;19926;-64
2023/03/21 11:19:01;;;;;;;;;;;;;;;;;;4994609;28;19926;-64
2023/03/21 11:21:27;;;;;;;;;;;;;;;;;;4991860;28;19929;-64
2023/03/21 11:23:54;;;;;;;;;;;;;;;;;;4993098;28;19926;-64
2023/03/21 11:26:23;;;;;;;;;;;;;;;;;;4994304;28;19960;-64
2023/03/21 11:28:50;;;;;;;;;;;;;;;;;;4993880;28;19988;-64
2023/03/21 11:31:17;;;;;;;;;;;;;;;;;;4993666;28;19940;-64
2023/03/21 11:33:44;;;;;;;;;;;;;;;;;;4993713;28;20343;-65
2023/03/21 11:36:11;;;;;;;;;;;;;;;;;;4988341;28;19972;-64
2023/03/21 11:38:38;;;;;;;;;;;;;;;;;;4986011;28;19925;-64
2023/03/21 11:41:05;;;;;;;;;;;;;;;;;;4993585;28;19929;-64
2023/03/21 11:43:32;;;;;;;;;;;;;;;;;;4984819;28;19926;-65
2023/03/21 11:45:59;;;;;;;;;;;;;;;;;;4993518;28;19937;-64
2023/03/21 11:48:26;;;;;;;;;;;;;;;;;;4993523;28;20009;-64
2023/03/21 11:50:53;;;;;;;;;;;;;;;;;;4993912;28;19948;-64
2023/03/21 11:53:20;;;;;;;;;;;;;;;;;;4990317;28;19933;-64
2023/03/21 11:55:46;;;;;;;;;;;;;;;;;;4990040;28;20307;-64
2023/03/21 11:58:13;;;;;;;;;;;;;;;;;;4987499;28;19926;-64
2023/03/21 12:00:40;;;;;;;;;;;;;;;;;;4993183;28;19925;-64
2023/03/21 12:03:07;;;;;;;;;;;;;;;;;;4992292;28;19997;-64
2023/03/21 12:05:34;;;;;;;;;;;;;;;;;;4991629;28;19980;-64
2023/03/21 12:08:01;;;;;;;;;;;;;;;;;;4992935;28;20375;-64
2023/03/21 12:10:28;;;;;;;;;;;;;;;;;;4991459;28;19936;-64
2023/03/21 12:12:55;;;;;;;;;;;;;;;;;;4991856;28;19929;-64
2023/03/21 12:15:22;;;;;;;;;;;;;;;;;;4991179;28;19926;-65
2023/03/21 12:17:49;;;;;;;;;;;;;;;;;;4996273;28;19933;-65
2023/03/21 12:20:16;;;;;;;;;;;;;;;;;;4989413;28;19926;-65
2023/03/21 12:22:43;;;;;;;;;;;;;;;;;;4999827;28;19933;-69
2023/03/21 12:25:10;;;;;;;;;;;;;;;;;;4990409;28;19937;-70
2023/03/21 12:27:37;;;;;;;;;;;;;;;;;;4991148;28;19936;-63
2023/03/21 12:30:04;;;;;;;;;;;;;;;;;;4995106;28;19929;-63
2023/03/21 12:32:31;;;;;;;;;;;;;;;;;;4992627;28;20031;-63
2023/03/21 12:34:59;;;;;;;;;;;;;;;;;;4989841;28;19940;-65
2023/03/21 12:37:25;;;;;;;;;;;;;;;;;;4987642;28;19930;-65
2023/03/21 12:39:52;;;;;;;;;;;;;;;;;;4990512;28;20291;-63
2023/03/21 12:42:19;;;;;;;;;;;;;;;;;;4991149;28;19926;-63
2023/03/21 12:44:46;;;;;;;;;;;;;;;;;;4997312;28;20406;-65
2023/03/21 12:47:13;;;;;;;;;;;;;;;;;;5009849;28;19958;-65
2023/03/21 12:49:40;;;;;;;;;;;;;;;;;;4984121;28;19926;-65
2023/03/21 12:52:07;;;;;;;;;;;;;;;;;;4994818;28;20335;-62
2023/03/21 12:54:35;;;;;;;;;;;;;;;;;;4986980;28;19933;-62
2023/03/21 12:57:02;;;;;;;;;;;;;;;;;;4990035;28;20025;-63
2023/03/21 12:59:29;;;;;;;;;;;;;;;;;;4988636;28;19933;-62
2023/03/21 13:01:56;;;;;;;;;;;;;;;;;;4992202;28;19925;-64
2023/03/21 13:04:23;;;;;;;;;;;;;;;;;;4976082;28;19934;-66
2023/03/21 13:06:50;;;;;;;;;;;;;;;;;;4978345;28;19955;-62
2023/03/21 13:09:17;;;;;;;;;;;;;;;;;;4984179;28;20352;-66
2023/03/21 13:11:44;;;;;;;;;;;;;;;;;;4979916;28;19933;-63
2023/03/21 13:14:11;;;;;;;;;;;;;;;;;;4977994;28;19934;-63
2023/03/21 13:16:38;;;;;;;;;;;;;;;;;;4979781;28;19930;-65
2023/03/21 13:19:05;;;;;;;;;;;;;;;;;;4997817;28;20423;-63
2023/03/21 13:21:32;;;;;;;;;;;;;;;;;;4994123;28;19932;-63
2023/03/21 13:23:59;;;;;;;;;;;;;;;;;;4992456;28;20300;-64
2023/03/21 13:26:26;;;;;;;;;;;;;;;;;;4992870;28;19930;-65
2023/03/21 13:28:53;;;;;;;;;;;;;;;;;;4991071;28;19925;-64
2023/03/21 13:31:20;;;;;;;;;;;;;;;;;;4988577;28;20303;-65
2023/03/21 13:33:47;;;;;;;;;;;;;;;;;;4991930;28;19934;-66
2023/03/21 13:36:14;;;;;;;;;;;;;;;;;;4983556;28;19932;-65
2023/03/21 13:38:41;;;;;;;;;;;;;;;;;;4992207;28;19926;-67
2023/03/21 13:41:09;;;;;;;;;;;;;;;;;;4993190;28;20465;-69
2023/03/21 13:43:36;;;;;;;;;;;;;;;;;;4999415;28;20008;-66
2023/03/21 13:46:02;;;;;;;;;;;;;;;;;;4992381;28;19926;-65
2023/03/21 13:48:29;;;;;;;;;;;;;;;;;;4992052;28;19932;-65
2023/03/21 13:50:56;;;;;;;;;;;;;;;;;;4988573;28;19933;-62
2023/03/21 13:53:23;;;;;;;;;;;;;;;;;;4994332;28;19933;-62
2023/03/21 13:55:50;;;;;;;;;;;;;;;;;;4985609;28;19926;-62
2023/03/21 13:58:17;;;;;;;;;;;;;;;;;;4986768;28;19940;-65
2023/03/21 14:00:45;;;;;;;;;;;;;;;;;;4993524;28;20380;-67
2023/03/21 14:03:11;;;;;;;;;;;;;;;;;;4984392;28;19926;-68
2023/03/21 14:05:38;;;;;;;;;;;;;;;;;;4988470;28;19933;-65
2023/03/21 14:08:05;;;;;;;;;;;;;;;;;;4997611;28;20304;-64
2023/03/21 14:10:32;;;;;;;;;;;;;;;;;;4994451;28;19925;-64
2023/03/21 14:12:59;;;;;;;;;;;;;;;;;;4987460;28;19930;-62
2023/03/21 14:15:26;;;;;;;;;;;;;;;;;;4993907;28;19925;-63
2023/03/21 14:17:53;;;;;;;;;;;;;;;;;;4993322;28;19926;-63
2023/03/21 14:20:20;;;;;;;;;;;;;;;;;;4994594;28;20319;-68
2023/03/21 14:22:47;;;;;;;;;;;;;;;;;;4987454;28;20185;-61
2023/03/21 14:25:14;;;;;;;;;;;;;;;;;;4984546;28;20324;-61
2023/03/21 14:27:41;;;;;;;;;;;;;;;;;;4989512;28;20404;-67
2023/03/21 14:30:08;;;;;;;;;;;;;;;;;;4992178;28;19925;-65
2023/03/21 14:32:35;;;;;;;;;;;;;;;;;;4994872;28;19930;-64
2023/03/21 14:35:02;;;;;;;;;;;;;;;;;;4993768;28;20311;-64
2023/03/21 14:37:28;;;;;;;;;;;;;;;;;;4987662;28;20438;-64
2023/03/21 14:39:55;;;;;;;;;;;;;;;;;;4984518;28;19926;-64
2023/03/21 14:42:22;;;;;;;;;;;;;;;;;;4989242;28;20296;-64
2023/03/21 14:44:50;;;;;;;;;;;;;;;;;;4990482;28;19929;-64
2023/03/21 14:47:16;;;;;;;;;;;;;;;;;;4998992;28;19937;-62
2023/03/21 14:49:43;;;;;;;;;;;;;;;;;;4997063;28;19933;-62
2023/03/21 14:52:10;;;;;;;;;;;;;;;;;;4984321;28;19926;-63
2023/03/21 14:54:37;;;;;;;;;;;;;;;;;;4992511;28;19926;-62
2023/03/21 14:57:04;;;;;;;;;;;;;;;;;;4994891;28;19926;-63
2023/03/21 14:59:31;;;;;;;;;;;;;;;;;;4990368;28;19926;-62
2023/03/21 15:01:58;;;;;;;;;;;;;;;;;;4992729;28;19988;-62
2023/03/21 15:04:25;;;;;;;;;;;;;;;;;;4983784;28;20289;-63
2023/03/21 15:06:52;;;;;;;;;;;;;;;;;;4991610;28;19925;-62
2023/03/21 15:09:19;;;;;;;;;;;;;;;;;;4990453;28;19956;-63
2023/03/21 15:11:46;;;;;;;;;;;;;;;;;;4994118;28;19932;-62
2023/03/21 15:14:13;;;;;;;;;;;;;;;;;;5011490;22;19910;-61
2023/03/21 15:16:40;;;;;;;;;;;;;;;;;;5046932;28;20039;-57
2023/03/21 15:19:08;;;;;;;;;;;;;;;;;;5052889;28;19925;-57
2023/03/21 15:21:35;;;;;;;;;;;;;;;;;;5051824;28;20356;-57
2023/03/21 15:24:02;;;;;;;;;;;;;;;;;;5058280;28;19931;-58
2023/03/21 15:26:30;;;;;;;;;;;;;;;;;;5053630;28;20407;-56
2023/03/21 15:28:57;;;;;;;;;;;;;;;;;;5049889;28;19933;-57
2023/03/21 15:31:24;;;;;;;;;;;;;;;;;;5033360;28;20031;-63
2023/03/21 15:33:51;;;;;;;;;;;;;;;;;;5024860;28;20496;-59
2023/03/21 15:36:18;;;;;;;;;;;;;;;;;;5038263;28;19937;-57
2023/03/21 15:38:47;;;;;;;;;;;;;;;;;;5031995;28;20334;-61
2023/03/21 15:41:15;;;;;;;;;;;;;;;;;;5031200;28;20382;-61
2023/03/21 15:43:42;;;;;;;;;;;;;;;;;;5025740;28;19932;-62
2023/03/21 15:46:09;;;;;;;;;;;;;;;;;;5032427;28;19920;-57
2023/03/21 15:48:35;;;;;;;;;;;;;;;;;;5026971;28;19921;-56
2023/03/21 15:51:02;;;;;;;;;;;;;;;;;;5032488;28;19928;-57
2023/03/21 15:53:29;;;;;;;;;;;;;;;;;;5032576;28;20271;-60
2023/03/21 15:55:56;;;;;;;;;;;;;;;;;;5043496;28;19948;-57
2023/03/21 15:58:23;;;;;;;;;;;;;;;;;;5024057;28;20401;-60
2023/03/21 16:00:50;;;;;;;;;;;;;;;;;;5041199;28;20306;-56
2023/03/21 16:03:17;;;;;;;;;;;;;;;;;;5030018;28;19936;-61
2023/03/21 16:05:44;;;;;;;;;;;;;;;;;;5024302;28;19922;-55
2023/03/21 16:08:11;;;;;;;;;;;;;;;;;;5022726;28;19925;-60
2023/03/21 16:10:38;;;;;;;;;;;;;;;;;;5025179;28;20012;-59
2023/03/21 16:13:05;;;;;;;;;;;;;;;;;;5029820;28;20087;-58
2023/03/21 16:15:32;;;;;;;;;;;;;;;;;;5027868;28;19921;-57
2023/03/21 16:17:59;;;;;;;;;;;;;;;;;;5031061;28;19928;-57
2023/03/21 16:20:26;;;;;;;;;;;;;;;;;;5028118;28;19922;-57
2023/03/21 16:22:53;;;;;;;;;;;;;;;;;;5035863;28;19921;-59
2023/03/21 16:25:20;;;;;;;;;;;;;;;;;;5029904;28;20272;-58
2023/03/21 16:27:47;;;;;;;;;;;;;;;;;;5037187;28;20012;-58
2023/03/21 16:30:14;;;;;;;;;;;;;;;;;;5027282;28;19920;-57
2023/03/21 16:32:41;;;;;;;;;;;;;;;;;;5027530;28;19928;-58
2023/03/21 16:35:08;;;;;;;;;;;;;;;;;;5026744;28;20387;-58
2023/03/21 16:37:35;;;;;;;;;;;;;;;;;;5031575;28;19994;-58
2023/03/21 16:40:04;;;;;;;;;;;;;;;;;;5030590;28;19948;-59
2023/03/21 16:42:31;;;;;;;;;;;;;;;;;;5027919;28;19924;-58
2023/03/21 16:44:58;;;;;;;;;;;;;;;;;;5027696;28;19928;-58
2023/03/21 16:47:25;;;;;;;;;;;;;;;;;;5031122;28;19927;-60